sensor_id;sensor_type;location;lat;lon;timestamp;P1;durP1;ratioP1;P2;durP2;ratioP2
75096;SDS011;63684;47.964;11.186;2023-02-01T00:02:11;4.60;;;3.00;;
75096;SDS011;63684;47.964;11.186;2023-02-01T00:04:36;3.13;;;2.00;;
75096;SDS011;63684;47.964;11.186;2023-02-01T00:07:02;2.93;;;2.47;;
75096;SDS011;63684;47.964;11.186;2023-02-01T00:09:27;5.73;;;2.50;;
75096;SDS011;63684;47.964;11.186;2023-02-01T00:11:52;4.07;;;2.60;;
75096;SDS011;63684;47.964;11.186;2023-02-01T00:14:18;3.97;;;2.77;;
75096;SDS011;63684;47.964;11.186;2023-02-01T00:16:43;2.87;;;2.30;;
75096;SDS011;63684;47.964;11.186;2023-02-01T00:19:13;3.27;;;2.60;;
75096;SDS011;63684;47.964;11.186;2023-02-01T00:21:39;3.30;;;2.63;;
75096;SDS011;63684;47.964;11.186;2023-02-01T00:24:05;5.57;;;2.97;;
75096;SDS011;63684;47.964;11.186;2023-02-01T00:28:57;3.77;;;3.03;;
75096;SDS011;63684;47.964;11.186;2023-02-01T00:31:23;3.97;;;3.10;;
75096;SDS011;63684;47.964;11.186;2023-02-01T00:33:49;3.50;;;2.80;;
75096;SDS011;63684;47.964;11.186;2023-02-01T00:36:14;5.73;;;3.50;;
75096;SDS011;63684;47.964;11.186;2023-02-01T00:38:40;4.00;;;2.97;;
75096;SDS011;63684;47.964;11.186;2023-02-01T00:41:09;3.77;;;2.97;;
75096;SDS011;63684;47.964;11.186;2023-02-01T00:43:39;3.87;;;3.30;;
75096;SDS011;63684;47.964;11.186;2023-02-01T00:46:04;4.60;;;3.00;;
75096;SDS011;63684;47.964;11.186;2023-02-01T00:48:30;4.40;;;3.23;;
75096;SDS011;63684;47.964;11.186;2023-02-01T00:51:02;4.33;;;3.10;;
75096;SDS011;63684;47.964;11.186;2023-02-01T00:53:32;4.67;;;3.17;;
75096;SDS011;63684;47.964;11.186;2023-02-01T00:55:58;5.07;;;2.87;;
75096;SDS011;63684;47.964;11.186;2023-02-01T00:58:24;4.03;;;2.93;;
75096;SDS011;63684;47.964;11.186;2023-02-01T01:01:00;3.33;;;2.77;;
75096;SDS011;63684;47.964;11.186;2023-02-01T01:03:27;3.70;;;3.20;;
75096;SDS011;63684;47.964;11.186;2023-02-01T01:05:56;5.07;;;3.33;;
75096;SDS011;63684;47.964;11.186;2023-02-01T01:08:22;4.93;;;3.30;;
75096;SDS011;63684;47.964;11.186;2023-02-01T01:10:47;3.60;;;3.17;;
75096;SDS011;63684;47.964;11.186;2023-02-01T01:13:14;6.70;;;3.40;;
75096;SDS011;63684;47.964;11.186;2023-02-01T01:15:40;3.00;;;2.77;;
75096;SDS011;63684;47.964;11.186;2023-02-01T01:18:06;6.50;;;3.43;;
75096;SDS011;63684;47.964;11.186;2023-02-01T01:20:33;4.40;;;3.17;;
75096;SDS011;63684;47.964;11.186;2023-02-01T01:22:59;4.87;;;3.20;;
75096;SDS011;63684;47.964;11.186;2023-02-01T01:25:25;5.47;;;3.23;;
75096;SDS011;63684;47.964;11.186;2023-02-01T01:27:51;5.90;;;3.50;;
75096;SDS011;63684;47.964;11.186;2023-02-01T01:30:16;3.40;;;3.10;;
75096;SDS011;63684;47.964;11.186;2023-02-01T01:32:42;3.67;;;3.27;;
75096;SDS011;63684;47.964;11.186;2023-02-01T01:35:08;4.30;;;3.90;;
75096;SDS011;63684;47.964;11.186;2023-02-01T01:37:33;4.70;;;3.80;;
75096;SDS011;63684;47.964;11.186;2023-02-01T01:40:00;4.27;;;3.40;;
75096;SDS011;63684;47.964;11.186;2023-02-01T01:42:26;4.80;;;3.57;;
75096;SDS011;63684;47.964;11.186;2023-02-01T01:44:56;4.30;;;3.90;;
75096;SDS011;63684;47.964;11.186;2023-02-01T01:47:34;6.17;;;3.87;;
75096;SDS011;63684;47.964;11.186;2023-02-01T01:50:03;4.70;;;3.20;;
75096;SDS011;63684;47.964;11.186;2023-02-01T01:52:29;4.77;;;4.20;;
75096;SDS011;63684;47.964;11.186;2023-02-01T01:54:55;5.27;;;4.03;;
75096;SDS011;63684;47.964;11.186;2023-02-01T01:57:24;3.83;;;3.37;;
75096;SDS011;63684;47.964;11.186;2023-02-01T02:00:14;5.93;;;3.67;;
75096;SDS011;63684;47.964;11.186;2023-02-01T02:02:39;4.07;;;3.67;;
75096;SDS011;63684;47.964;11.186;2023-02-01T02:05:06;5.10;;;3.67;;
75096;SDS011;63684;47.964;11.186;2023-02-01T02:07:34;8.33;;;3.93;;
75096;SDS011;63684;47.964;11.186;2023-02-01T02:10:05;4.77;;;4.20;;
75096;SDS011;63684;47.964;11.186;2023-02-01T02:12:37;6.57;;;4.40;;
75096;SDS011;63684;47.964;11.186;2023-02-01T02:15:03;4.50;;;4.03;;
75096;SDS011;63684;47.964;11.186;2023-02-01T02:17:40;6.20;;;4.40;;
75096;SDS011;63684;47.964;11.186;2023-02-01T02:23:38;5.77;;;4.07;;
75096;SDS011;63684;47.964;11.186;2023-02-01T02:26:19;7.43;;;4.13;;
75096;SDS011;63684;47.964;11.186;2023-02-01T02:29:00;5.50;;;4.40;;
75096;SDS011;63684;47.964;11.186;2023-02-01T02:32:03;6.20;;;4.10;;
75096;SDS011;63684;47.964;11.186;2023-02-01T02:34:34;5.90;;;3.93;;
75096;SDS011;63684;47.964;11.186;2023-02-01T02:39:45;5.47;;;4.17;;
75096;SDS011;63684;47.964;11.186;2023-02-01T02:42:32;5.57;;;4.07;;
75096;SDS011;63684;47.964;11.186;2023-02-01T02:45:38;4.40;;;3.57;;
75096;SDS011;63684;47.964;11.186;2023-02-01T02:48:37;5.27;;;3.23;;
75096;SDS011;63684;47.964;11.186;2023-02-01T02:51:10;4.90;;;3.67;;
75096;SDS011;63684;47.964;11.186;2023-02-01T02:56:53;3.97;;;3.57;;
75096;SDS011;63684;47.964;11.186;2023-02-01T02:59:39;6.30;;;4.17;;
75096;SDS011;63684;47.964;11.186;2023-02-01T03:02:25;7.23;;;3.60;;
75096;SDS011;63684;47.964;11.186;2023-02-01T03:05:10;7.10;;;3.87;;
75096;SDS011;63684;47.964;11.186;2023-02-01T03:13:16;6.20;;;4.37;;
75096;SDS011;63684;47.964;11.186;2023-02-01T03:19:02;4.73;;;3.60;;
75096;SDS011;63684;47.964;11.186;2023-02-01T03:21:35;7.03;;;4.13;;
75096;SDS011;63684;47.964;11.186;2023-02-01T03:24:25;4.00;;;3.40;;
75096;SDS011;63684;47.964;11.186;2023-02-01T03:32:19;5.00;;;3.73;;
75096;SDS011;63684;47.964;11.186;2023-02-01T03:34:45;5.53;;;3.57;;
75096;SDS011;63684;47.964;11.186;2023-02-01T03:37:12;5.17;;;3.27;;
75096;SDS011;63684;47.964;11.186;2023-02-01T03:39:53;4.13;;;3.60;;
75096;SDS011;63684;47.964;11.186;2023-02-01T03:42:38;5.57;;;3.77;;
75096;SDS011;63684;47.964;11.186;2023-02-01T03:45:07;5.47;;;3.33;;
75096;SDS011;63684;47.964;11.186;2023-02-01T03:47:37;4.20;;;3.80;;
75096;SDS011;63684;47.964;11.186;2023-02-01T03:50:21;6.70;;;3.50;;
75096;SDS011;63684;47.964;11.186;2023-02-01T03:52:55;5.33;;;3.90;;
75096;SDS011;63684;47.964;11.186;2023-02-01T03:55:24;3.87;;;3.17;;
75096;SDS011;63684;47.964;11.186;2023-02-01T04:00:35;3.77;;;3.47;;
75096;SDS011;63684;47.964;11.186;2023-02-01T04:03:01;6.53;;;3.97;;
75096;SDS011;63684;47.964;11.186;2023-02-01T04:05:28;5.97;;;3.50;;
75096;SDS011;63684;47.964;11.186;2023-02-01T04:07:58;4.70;;;3.73;;
75096;SDS011;63684;47.964;11.186;2023-02-01T04:10:24;5.00;;;3.60;;
75096;SDS011;63684;47.964;11.186;2023-02-01T04:12:49;5.33;;;3.30;;
75096;SDS011;63684;47.964;11.186;2023-02-01T04:15:15;4.63;;;3.57;;
75096;SDS011;63684;47.964;11.186;2023-02-01T04:17:40;4.67;;;3.87;;
75096;SDS011;63684;47.964;11.186;2023-02-01T04:20:06;4.03;;;3.50;;
75096;SDS011;63684;47.964;11.186;2023-02-01T04:22:32;5.13;;;3.30;;
75096;SDS011;63684;47.964;11.186;2023-02-01T04:24:57;4.60;;;3.83;;
75096;SDS011;63684;47.964;11.186;2023-02-01T04:27:23;6.20;;;3.53;;
75096;SDS011;63684;47.964;11.186;2023-02-01T04:29:48;4.93;;;3.80;;
75096;SDS011;63684;47.964;11.186;2023-02-01T04:32:16;4.57;;;3.93;;
75096;SDS011;63684;47.964;11.186;2023-02-01T04:34:42;4.77;;;3.57;;
75096;SDS011;63684;47.964;11.186;2023-02-01T04:37:08;4.57;;;3.63;;
75096;SDS011;63684;47.964;11.186;2023-02-01T04:39:33;6.73;;;4.40;;
75096;SDS011;63684;47.964;11.186;2023-02-01T04:41:58;5.73;;;4.17;;
75096;SDS011;63684;47.964;11.186;2023-02-01T04:44:24;4.33;;;3.90;;
75096;SDS011;63684;47.964;11.186;2023-02-01T04:46:49;5.80;;;3.77;;
75096;SDS011;63684;47.964;11.186;2023-02-01T04:49:15;5.40;;;4.00;;
75096;SDS011;63684;47.964;11.186;2023-02-01T04:51:40;4.10;;;3.70;;
75096;SDS011;63684;47.964;11.186;2023-02-01T04:54:06;6.67;;;4.17;;
75096;SDS011;63684;47.964;11.186;2023-02-01T04:56:32;6.23;;;3.67;;
75096;SDS011;63684;47.964;11.186;2023-02-01T04:58:59;6.00;;;3.63;;
75096;SDS011;63684;47.964;11.186;2023-02-01T05:01:25;4.07;;;3.67;;
75096;SDS011;63684;47.964;11.186;2023-02-01T05:03:51;6.87;;;4.03;;
75096;SDS011;63684;47.964;11.186;2023-02-01T05:06:16;4.80;;;4.13;;
75096;SDS011;63684;47.964;11.186;2023-02-01T05:08:42;5.63;;;4.20;;
75096;SDS011;63684;47.964;11.186;2023-02-01T05:11:07;4.37;;;3.93;;
75096;SDS011;63684;47.964;11.186;2023-02-01T05:13:52;4.80;;;4.00;;
75096;SDS011;63684;47.964;11.186;2023-02-01T05:16:18;5.63;;;4.27;;
75096;SDS011;63684;47.964;11.186;2023-02-01T05:18:44;5.07;;;4.13;;
75096;SDS011;63684;47.964;11.186;2023-02-01T05:21:09;5.70;;;4.40;;
75096;SDS011;63684;47.964;11.186;2023-02-01T05:23:35;6.67;;;4.63;;
75096;SDS011;63684;47.964;11.186;2023-02-01T05:26:20;6.03;;;4.13;;
75096;SDS011;63684;47.964;11.186;2023-02-01T05:28:46;6.13;;;4.27;;
75096;SDS011;63684;47.964;11.186;2023-02-01T05:31:11;5.70;;;4.07;;
75096;SDS011;63684;47.964;11.186;2023-02-01T05:33:36;5.10;;;4.00;;
75096;SDS011;63684;47.964;11.186;2023-02-01T05:36:02;5.83;;;4.30;;
75096;SDS011;63684;47.964;11.186;2023-02-01T05:38:28;6.63;;;3.87;;
75096;SDS011;63684;47.964;11.186;2023-02-01T05:40:54;6.93;;;4.27;;
75096;SDS011;63684;47.964;11.186;2023-02-01T05:43:20;7.53;;;4.70;;
75096;SDS011;63684;47.964;11.186;2023-02-01T05:45:45;4.90;;;3.83;;
75096;SDS011;63684;47.964;11.186;2023-02-01T05:48:11;6.77;;;4.70;;
75096;SDS011;63684;47.964;11.186;2023-02-01T05:50:36;6.67;;;4.27;;
75096;SDS011;63684;47.964;11.186;2023-02-01T05:53:07;5.93;;;4.30;;
75096;SDS011;63684;47.964;11.186;2023-02-01T05:55:33;7.20;;;4.40;;
75096;SDS011;63684;47.964;11.186;2023-02-01T05:57:58;4.50;;;3.80;;
75096;SDS011;63684;47.964;11.186;2023-02-01T06:00:23;7.23;;;3.80;;
75096;SDS011;63684;47.964;11.186;2023-02-01T06:02:49;5.90;;;4.63;;
75096;SDS011;63684;47.964;11.186;2023-02-01T06:05:14;6.37;;;4.27;;
75096;SDS011;63684;47.964;11.186;2023-02-01T06:07:40;5.20;;;3.80;;
75096;SDS011;63684;47.964;11.186;2023-02-01T06:10:06;6.20;;;4.03;;
75096;SDS011;63684;47.964;11.186;2023-02-01T06:12:31;8.67;;;5.27;;
75096;SDS011;63684;47.964;11.186;2023-02-01T06:14:57;4.67;;;3.90;;
75096;SDS011;63684;47.964;11.186;2023-02-01T06:17:25;5.67;;;3.97;;
75096;SDS011;63684;47.964;11.186;2023-02-01T06:19:50;5.60;;;4.37;;
75096;SDS011;63684;47.964;11.186;2023-02-01T06:22:16;5.63;;;4.30;;
75096;SDS011;63684;47.964;11.186;2023-02-01T06:24:42;6.07;;;4.40;;
75096;SDS011;63684;47.964;11.186;2023-02-01T06:27:07;11.37;;;5.70;;
75096;SDS011;63684;47.964;11.186;2023-02-01T06:29:34;7.17;;;4.00;;
75096;SDS011;63684;47.964;11.186;2023-02-01T06:32:00;3.60;;;3.20;;
75096;SDS011;63684;47.964;11.186;2023-02-01T06:34:25;6.57;;;5.03;;
75096;SDS011;63684;47.964;11.186;2023-02-01T06:36:51;5.93;;;4.10;;
75096;SDS011;63684;47.964;11.186;2023-02-01T06:39:16;11.93;;;4.10;;
75096;SDS011;63684;47.964;11.186;2023-02-01T06:41:46;5.73;;;3.80;;
75096;SDS011;63684;47.964;11.186;2023-02-01T06:44:12;5.50;;;4.57;;
75096;SDS011;63684;47.964;11.186;2023-02-01T06:46:37;5.93;;;4.10;;
75096;SDS011;63684;47.964;11.186;2023-02-01T06:49:03;5.37;;;4.30;;
75096;SDS011;63684;47.964;11.186;2023-02-01T06:51:28;6.07;;;4.30;;
75096;SDS011;63684;47.964;11.186;2023-02-01T06:53:54;5.13;;;3.80;;
75096;SDS011;63684;47.964;11.186;2023-02-01T06:56:20;4.60;;;4.20;;
75096;SDS011;63684;47.964;11.186;2023-02-01T06:58:46;5.03;;;4.27;;
75096;SDS011;63684;47.964;11.186;2023-02-01T07:01:12;5.50;;;3.90;;
75096;SDS011;63684;47.964;11.186;2023-02-01T07:03:39;6.03;;;3.90;;
75096;SDS011;63684;47.964;11.186;2023-02-01T07:06:04;6.30;;;4.13;;
75096;SDS011;63684;47.964;11.186;2023-02-01T07:08:31;6.47;;;4.00;;
75096;SDS011;63684;47.964;11.186;2023-02-01T07:11:01;5.43;;;3.70;;
75096;SDS011;63684;47.964;11.186;2023-02-01T07:13:36;4.43;;;3.70;;
75096;SDS011;63684;47.964;11.186;2023-02-01T07:16:02;6.37;;;3.70;;
75096;SDS011;63684;47.964;11.186;2023-02-01T07:18:29;4.77;;;3.47;;
75096;SDS011;63684;47.964;11.186;2023-02-01T07:20:55;4.73;;;3.67;;
75096;SDS011;63684;47.964;11.186;2023-02-01T07:23:21;3.87;;;3.47;;
75096;SDS011;63684;47.964;11.186;2023-02-01T07:25:47;3.47;;;3.10;;
75096;SDS011;63684;47.964;11.186;2023-02-01T07:28:13;4.10;;;3.23;;
75096;SDS011;63684;47.964;11.186;2023-02-01T07:30:39;3.87;;;3.20;;
75096;SDS011;63684;47.964;11.186;2023-02-01T07:33:04;5.07;;;3.10;;
75096;SDS011;63684;47.964;11.186;2023-02-01T07:35:30;3.07;;;2.77;;
75096;SDS011;63684;47.964;11.186;2023-02-01T07:37:56;4.57;;;3.07;;
75096;SDS011;63684;47.964;11.186;2023-02-01T07:40:22;3.83;;;3.33;;
75096;SDS011;63684;47.964;11.186;2023-02-01T07:42:53;4.20;;;2.50;;
75096;SDS011;63684;47.964;11.186;2023-02-01T07:45:20;4.43;;;3.30;;
75096;SDS011;63684;47.964;11.186;2023-02-01T07:47:45;3.10;;;2.80;;
75096;SDS011;63684;47.964;11.186;2023-02-01T07:50:11;5.73;;;3.43;;
75096;SDS011;63684;47.964;11.186;2023-02-01T07:52:36;3.03;;;2.73;;
75096;SDS011;63684;47.964;11.186;2023-02-01T07:55:01;4.97;;;2.77;;
75096;SDS011;63684;47.964;11.186;2023-02-01T07:57:27;3.03;;;2.47;;
75096;SDS011;63684;47.964;11.186;2023-02-01T07:59:53;3.20;;;2.60;;
75096;SDS011;63684;47.964;11.186;2023-02-01T08:02:40;4.27;;;2.30;;
75096;SDS011;63684;47.964;11.186;2023-02-01T08:05:05;4.23;;;2.77;;
75096;SDS011;63684;47.964;11.186;2023-02-01T08:07:31;3.30;;;3.00;;
75096;SDS011;63684;47.964;11.186;2023-02-01T08:09:57;2.93;;;2.57;;
75096;SDS011;63684;47.964;11.186;2023-02-01T08:12:22;3.80;;;2.57;;
75096;SDS011;63684;47.964;11.186;2023-02-01T08:14:48;3.93;;;2.50;;
75096;SDS011;63684;47.964;11.186;2023-02-01T08:17:13;4.50;;;3.37;;
75096;SDS011;63684;47.964;11.186;2023-02-01T08:19:39;3.77;;;2.60;;
75096;SDS011;63684;47.964;11.186;2023-02-01T08:22:04;4.47;;;2.70;;
75096;SDS011;63684;47.964;11.186;2023-02-01T08:24:32;3.97;;;2.47;;
75096;SDS011;63684;47.964;11.186;2023-02-01T08:27:00;3.10;;;2.60;;
75096;SDS011;63684;47.964;11.186;2023-02-01T08:29:26;3.27;;;2.90;;
75096;SDS011;63684;47.964;11.186;2023-02-01T08:31:51;4.47;;;3.20;;
75096;SDS011;63684;47.964;11.186;2023-02-01T08:34:18;4.23;;;2.67;;
75096;SDS011;63684;47.964;11.186;2023-02-01T08:36:43;7.00;;;2.47;;
75096;SDS011;63684;47.964;11.186;2023-02-01T08:39:09;2.60;;;2.40;;
75096;SDS011;63684;47.964;11.186;2023-02-01T08:41:35;4.00;;;2.67;;
75096;SDS011;63684;47.964;11.186;2023-02-01T08:44:01;3.03;;;2.53;;
75096;SDS011;63684;47.964;11.186;2023-02-01T08:46:26;2.83;;;2.47;;
75096;SDS011;63684;47.964;11.186;2023-02-01T08:48:52;8.63;;;2.97;;
75096;SDS011;63684;47.964;11.186;2023-02-01T08:51:19;6.10;;;2.53;;
75096;SDS011;63684;47.964;11.186;2023-02-01T08:53:45;4.40;;;2.73;;
75096;SDS011;63684;47.964;11.186;2023-02-01T08:56:12;4.20;;;2.63;;
75096;SDS011;63684;47.964;11.186;2023-02-01T08:58:39;3.17;;;2.57;;
75096;SDS011;63684;47.964;11.186;2023-02-01T09:01:05;2.83;;;2.50;;
75096;SDS011;63684;47.964;11.186;2023-02-01T09:03:32;3.70;;;2.53;;
75096;SDS011;63684;47.964;11.186;2023-02-01T09:06:05;3.03;;;2.60;;
75096;SDS011;63684;47.964;11.186;2023-02-01T09:08:32;2.23;;;2.00;;
75096;SDS011;63684;47.964;11.186;2023-02-01T09:11:02;3.17;;;2.57;;
75096;SDS011;63684;47.964;11.186;2023-02-01T09:13:29;3.10;;;2.57;;
75096;SDS011;63684;47.964;11.186;2023-02-01T09:15:54;3.53;;;2.80;;
75096;SDS011;63684;47.964;11.186;2023-02-01T09:18:20;4.57;;;2.80;;
75096;SDS011;63684;47.964;11.186;2023-02-01T09:20:45;3.33;;;2.60;;
75096;SDS011;63684;47.964;11.186;2023-02-01T09:23:10;3.70;;;2.43;;
75096;SDS011;63684;47.964;11.186;2023-02-01T09:25:36;4.10;;;3.13;;
75096;SDS011;63684;47.964;11.186;2023-02-01T09:28:03;3.90;;;2.33;;
75096;SDS011;63684;47.964;11.186;2023-02-01T09:30:31;8.33;;;3.07;;
75096;SDS011;63684;47.964;11.186;2023-02-01T09:32:57;5.40;;;2.63;;
75096;SDS011;63684;47.964;11.186;2023-02-01T09:35:23;3.20;;;2.77;;
75096;SDS011;63684;47.964;11.186;2023-02-01T09:37:48;4.60;;;2.60;;
75096;SDS011;63684;47.964;11.186;2023-02-01T09:40:14;3.87;;;3.17;;
75096;SDS011;63684;47.964;11.186;2023-02-01T09:42:48;3.77;;;2.67;;
75096;SDS011;63684;47.964;11.186;2023-02-01T09:45:33;3.00;;;2.70;;
75096;SDS011;63684;47.964;11.186;2023-02-01T09:48:19;3.37;;;2.80;;
75096;SDS011;63684;47.964;11.186;2023-02-01T09:50:50;3.93;;;2.80;;
75096;SDS011;63684;47.964;11.186;2023-02-01T09:55:54;3.23;;;2.53;;
75096;SDS011;63684;47.964;11.186;2023-02-01T10:00:59;3.70;;;3.20;;
75096;SDS011;63684;47.964;11.186;2023-02-01T10:03:26;4.27;;;2.73;;
75096;SDS011;63684;47.964;11.186;2023-02-01T10:22:13;9.90;;;5.77;;
75096;SDS011;63684;47.964;11.186;2023-02-01T10:24:50;2.60;;;2.40;;
75096;SDS011;63684;47.964;11.186;2023-02-01T10:27:23;3.73;;;2.73;;
75096;SDS011;63684;47.964;11.186;2023-02-01T10:29:55;3.47;;;2.57;;
75096;SDS011;63684;47.964;11.186;2023-02-01T10:32:33;2.90;;;2.40;;
75096;SDS011;63684;47.964;11.186;2023-02-01T10:35:00;6.40;;;2.17;;
75096;SDS011;63684;47.964;11.186;2023-02-01T10:37:32;2.83;;;2.33;;
75096;SDS011;63684;47.964;11.186;2023-02-01T10:40:15;3.43;;;2.27;;
75096;SDS011;63684;47.964;11.186;2023-02-01T10:42:42;4.03;;;3.00;;
75096;SDS011;63684;47.964;11.186;2023-02-01T10:45:11;3.00;;;2.67;;
75096;SDS011;63684;47.964;11.186;2023-02-01T10:47:38;3.43;;;3.13;;
75096;SDS011;63684;47.964;11.186;2023-02-01T10:53:04;2.80;;;2.50;;
75096;SDS011;63684;47.964;11.186;2023-02-01T10:58:10;3.23;;;2.57;;
75096;SDS011;63684;47.964;11.186;2023-02-01T11:00:45;2.47;;;1.90;;
75096;SDS011;63684;47.964;11.186;2023-02-01T11:06:00;3.23;;;2.47;;
75096;SDS011;63684;47.964;11.186;2023-02-01T11:08:26;2.63;;;2.40;;
75096;SDS011;63684;47.964;11.186;2023-02-01T11:10:59;3.00;;;2.33;;
75096;SDS011;63684;47.964;11.186;2023-02-01T11:13:30;2.10;;;1.90;;
75096;SDS011;63684;47.964;11.186;2023-02-01T11:15:58;2.57;;;2.20;;
75096;SDS011;63684;47.964;11.186;2023-02-01T11:18:28;2.20;;;2.00;;
75096;SDS011;63684;47.964;11.186;2023-02-01T11:20:54;3.80;;;2.23;;
75096;SDS011;63684;47.964;11.186;2023-02-01T11:23:21;2.43;;;2.00;;
75096;SDS011;63684;47.964;11.186;2023-02-01T11:25:58;4.27;;;2.30;;
75096;SDS011;63684;47.964;11.186;2023-02-01T11:28:25;4.13;;;2.63;;
75096;SDS011;63684;47.964;11.186;2023-02-01T11:30:53;3.03;;;2.37;;
75096;SDS011;63684;47.964;11.186;2023-02-01T11:33:21;4.70;;;2.40;;
75096;SDS011;63684;47.964;11.186;2023-02-01T11:35:52;2.87;;;2.33;;
75096;SDS011;63684;47.964;11.186;2023-02-01T11:38:31;4.97;;;2.40;;
75096;SDS011;63684;47.964;11.186;2023-02-01T11:41:40;3.53;;;2.70;;
75096;SDS011;63684;47.964;11.186;2023-02-01T11:43:52;5.00;;;2.57;;
75096;SDS011;63684;47.964;11.186;2023-02-01T11:46:21;2.60;;;2.20;;
75096;SDS011;63684;47.964;11.186;2023-02-01T11:48:51;3.63;;;2.20;;
75096;SDS011;63684;47.964;11.186;2023-02-01T11:57:04;7.63;;;2.47;;
75096;SDS011;63684;47.964;11.186;2023-02-01T11:59:53;3.27;;;2.50;;
75096;SDS011;63684;47.964;11.186;2023-02-01T12:05:29;5.97;;;2.73;;
75096;SDS011;63684;47.964;11.186;2023-02-01T12:08:11;2.67;;;2.40;;
75096;SDS011;63684;47.964;11.186;2023-02-01T12:13:41;6.00;;;2.60;;
75096;SDS011;63684;47.964;11.186;2023-02-01T12:16:15;5.33;;;2.80;;
75096;SDS011;63684;47.964;11.186;2023-02-01T12:18:58;4.77;;;2.63;;
75096;SDS011;63684;47.964;11.186;2023-02-01T12:21:34;3.80;;;2.17;;
75096;SDS011;63684;47.964;11.186;2023-02-01T12:37:52;4.30;;;2.70;;
75096;SDS011;63684;47.964;11.186;2023-02-01T12:43:17;4.57;;;2.73;;
75096;SDS011;63684;47.964;11.186;2023-02-01T12:46:01;5.57;;;3.13;;
75096;SDS011;63684;47.964;11.186;2023-02-01T12:51:43;3.20;;;2.40;;
75096;SDS011;63684;47.964;11.186;2023-02-01T12:57:03;4.87;;;2.27;;
75096;SDS011;63684;47.964;11.186;2023-02-01T12:59:37;2.93;;;2.10;;
75096;SDS011;63684;47.964;11.186;2023-02-01T13:02:14;5.20;;;3.23;;
75096;SDS011;63684;47.964;11.186;2023-02-01T13:04:44;1.87;;;1.53;;
75096;SDS011;63684;47.964;11.186;2023-02-01T13:07:46;3.10;;;2.00;;
75096;SDS011;63684;47.964;11.186;2023-02-01T13:13:00;2.57;;;1.73;;
75096;SDS011;63684;47.964;11.186;2023-02-01T13:15:37;2.10;;;1.70;;
75096;SDS011;63684;47.964;11.186;2023-02-01T13:18:06;9.90;;;2.57;;
75096;SDS011;63684;47.964;11.186;2023-02-01T13:20:35;5.17;;;4.67;;
75096;SDS011;63684;47.964;11.186;2023-02-01T13:23:10;4.33;;;2.80;;
75096;SDS011;63684;47.964;11.186;2023-02-01T13:25:42;3.60;;;1.97;;
75096;SDS011;63684;47.964;11.186;2023-02-01T13:28:14;3.30;;;2.20;;
75096;SDS011;63684;47.964;11.186;2023-02-01T13:31:27;4.17;;;1.97;;
75096;SDS011;63684;47.964;11.186;2023-02-01T13:33:52;2.47;;;2.10;;
75096;SDS011;63684;47.964;11.186;2023-02-01T13:36:41;5.30;;;2.40;;
75096;SDS011;63684;47.964;11.186;2023-02-01T13:42:15;2.97;;;2.33;;
75096;SDS011;63684;47.964;11.186;2023-02-01T13:44:48;3.10;;;2.03;;
75096;SDS011;63684;47.964;11.186;2023-02-01T13:49:49;3.13;;;2.20;;
75096;SDS011;63684;47.964;11.186;2023-02-01T13:52:50;3.83;;;2.00;;
75096;SDS011;63684;47.964;11.186;2023-02-01T13:55:15;5.40;;;1.90;;
75096;SDS011;63684;47.964;11.186;2023-02-01T13:57:49;3.63;;;2.33;;
75096;SDS011;63684;47.964;11.186;2023-02-01T14:00:31;4.10;;;1.87;;
75096;SDS011;63684;47.964;11.186;2023-02-01T14:16:10;2.40;;;1.87;;
75096;SDS011;63684;47.964;11.186;2023-02-01T14:23:41;5.13;;;2.40;;
75096;SDS011;63684;47.964;11.186;2023-02-01T14:26:09;3.57;;;2.20;;
75096;SDS011;63684;47.964;11.186;2023-02-01T14:28:38;5.43;;;2.37;;
75096;SDS011;63684;47.964;11.186;2023-02-01T14:36:50;5.33;;;2.13;;
75096;SDS011;63684;47.964;11.186;2023-02-01T14:39:25;6.50;;;1.97;;
75096;SDS011;63684;47.964;11.186;2023-02-01T14:41:53;2.60;;;1.80;;
75096;SDS011;63684;47.964;11.186;2023-02-01T14:44:28;4.57;;;2.00;;
75096;SDS011;63684;47.964;11.186;2023-02-01T14:47:08;3.50;;;1.90;;
75096;SDS011;63684;47.964;11.186;2023-02-01T14:49:39;5.97;;;2.30;;
75096;SDS011;63684;47.964;11.186;2023-02-01T14:52:14;4.60;;;1.97;;
75096;SDS011;63684;47.964;11.186;2023-02-01T14:54:42;6.07;;;2.60;;
75096;SDS011;63684;47.964;11.186;2023-02-01T14:57:15;4.27;;;2.13;;
75096;SDS011;63684;47.964;11.186;2023-02-01T14:59:42;6.63;;;2.10;;
75096;SDS011;63684;47.964;11.186;2023-02-01T15:02:24;2.80;;;2.37;;
75096;SDS011;63684;47.964;11.186;2023-02-01T15:04:56;4.03;;;2.47;;
75096;SDS011;63684;47.964;11.186;2023-02-01T15:07:24;5.03;;;2.73;;
75096;SDS011;63684;47.964;11.186;2023-02-01T15:09:50;7.00;;;3.07;;
75096;SDS011;63684;47.964;11.186;2023-02-01T15:12:24;4.67;;;2.40;;
75096;SDS011;63684;47.964;11.186;2023-02-01T15:15:11;4.03;;;2.97;;
75096;SDS011;63684;47.964;11.186;2023-02-01T15:17:37;3.40;;;2.40;;
75096;SDS011;63684;47.964;11.186;2023-02-01T15:20:05;4.70;;;2.23;;
75096;SDS011;63684;47.964;11.186;2023-02-01T15:22:40;3.77;;;2.30;;
75096;SDS011;63684;47.964;11.186;2023-02-01T15:25:17;5.37;;;2.57;;
75096;SDS011;63684;47.964;11.186;2023-02-01T15:27:44;3.57;;;2.10;;
75096;SDS011;63684;47.964;11.186;2023-02-01T15:30:16;4.40;;;2.50;;
75096;SDS011;63684;47.964;11.186;2023-02-01T15:32:43;3.80;;;2.47;;
75096;SDS011;63684;47.964;11.186;2023-02-01T15:43:34;4.13;;;2.73;;
75096;SDS011;63684;47.964;11.186;2023-02-01T15:46:03;6.10;;;1.93;;
75096;SDS011;63684;47.964;11.186;2023-02-01T15:48:35;4.17;;;2.13;;
75096;SDS011;63684;47.964;11.186;2023-02-01T15:51:10;5.20;;;2.50;;
75096;SDS011;63684;47.964;11.186;2023-02-01T15:53:37;4.93;;;2.53;;
75096;SDS011;63684;47.964;11.186;2023-02-01T15:56:03;4.97;;;2.10;;
75096;SDS011;63684;47.964;11.186;2023-02-01T15:58:29;5.27;;;2.10;;
75096;SDS011;63684;47.964;11.186;2023-02-01T16:01:00;6.13;;;3.00;;
75096;SDS011;63684;47.964;11.186;2023-02-01T16:03:36;5.50;;;2.30;;
75096;SDS011;63684;47.964;11.186;2023-02-01T16:06:08;4.17;;;1.87;;
75096;SDS011;63684;47.964;11.186;2023-02-01T16:08:55;4.37;;;2.37;;
75096;SDS011;63684;47.964;11.186;2023-02-01T16:11:28;7.37;;;2.43;;
75096;SDS011;63684;47.964;11.186;2023-02-01T16:13:58;6.77;;;1.73;;
75096;SDS011;63684;47.964;11.186;2023-02-01T16:16:29;11.00;;;2.70;;
75096;SDS011;63684;47.964;11.186;2023-02-01T16:18:54;3.90;;;2.40;;
75096;SDS011;63684;47.964;11.186;2023-02-01T16:21:20;6.23;;;2.20;;
75096;SDS011;63684;47.964;11.186;2023-02-01T16:23:49;8.23;;;1.90;;
75096;SDS011;63684;47.964;11.186;2023-02-01T16:26:16;7.17;;;2.53;;
75096;SDS011;63684;47.964;11.186;2023-02-01T16:28:41;10.57;;;2.03;;
75096;SDS011;63684;47.964;11.186;2023-02-01T16:31:14;5.47;;;2.00;;
75096;SDS011;63684;47.964;11.186;2023-02-01T16:33:50;5.33;;;2.60;;
75096;SDS011;63684;47.964;11.186;2023-02-01T16:36:16;7.53;;;2.40;;
75096;SDS011;63684;47.964;11.186;2023-02-01T16:38:42;4.63;;;2.07;;
75096;SDS011;63684;47.964;11.186;2023-02-01T16:41:14;6.20;;;1.70;;
75096;SDS011;63684;47.964;11.186;2023-02-01T16:43:43;4.33;;;2.00;;
75096;SDS011;63684;47.964;11.186;2023-02-01T16:46:19;5.50;;;3.63;;
75096;SDS011;63684;47.964;11.186;2023-02-01T16:49:05;8.10;;;1.80;;
75096;SDS011;63684;47.964;11.186;2023-02-01T16:51:41;11.43;;;3.57;;
75096;SDS011;63684;47.964;11.186;2023-02-01T16:54:07;6.93;;;2.33;;
75096;SDS011;63684;47.964;11.186;2023-02-01T16:56:33;3.60;;;2.07;;
75096;SDS011;63684;47.964;11.186;2023-02-01T16:59:00;11.80;;;2.33;;
75096;SDS011;63684;47.964;11.186;2023-02-01T17:01:26;8.77;;;2.13;;
75096;SDS011;63684;47.964;11.186;2023-02-01T17:03:52;7.10;;;2.03;;